ニューヨーク/JFK の空港の天気 - METARとTAF

ジョン・F・ケネディ国際空港 ( KJFK / JFK ) - アメリカ ニューヨーク州ニューヨーク
飛行場実況気象(Metar)
観測時間10/18 11:51 EDT (10/18 15:51 UTC)
風向・風速北西 7m/s 瞬間風速12m/s
視程10km以上
天気現象
少しの雲 雲底高度 1680m
気温8.9℃
湿度39%
気圧1027.8hPa
METARKJFK 181551Z 31014G24KT 10SM FEW055 09/M04 A3035 RMK AO2 PK WND 31026/1456 RAB13E30 SLP278 P0000 T00891044 VISNO W
過去の天気等 Google飛行場航空写真 Wunderground天気予報

過去48時間のMETAR

飛行場予報(TAF)
発表時間: 10/18 11:31 EDT (10/18 15:31 UTC)
予報対象時間: 18日12時 EDT ~ 19日14時 EDT
風向・風速北西 9m/s 瞬間風速 14m/s
視程10km以上
少しの雲 雲底高度 1520m
18日13時 EDT から
風向・風速西北西 9m/s 瞬間風速 13m/s
視程10km以上
少しの雲 雲底高度 1830m
18日20時 EDT から
風向・風速西北西 7m/s
視程10km以上
少しの雲 雲底高度 7620m
18日22時 EDT から
風向・風速西北西 5m/s
視程10km以上
少しの雲 雲底高度 7620m
19日0時 EDT から
風向・風速西 4m/s
視程10km以上
なし
19日9時 EDT から
風向・風速西南西 6m/s
視程10km以上
なし
KJFK 181531Z 1816/1918 32017G28KT P6SM FEW050
FM181700 30017G26KT P6SM FEW060
FM190000 30014KT P6SM FEW250
FM190200 30010KT P6SM FEW250
FM190400 27007KT P6SM SKC
FM191300 24012KT P6SM SKC